sensor_id;sensor_type;location;lat;lon;timestamp;pressure;altitude;pressure_sealevel;temperature;humidity
7930;BME280;4010;42.698;23.124;2023-02-04T00:02:23;118349.16;;;-140.64;90.09
7930;BME280;4010;42.698;23.124;2023-02-04T00:04:51;118349.16;;;-140.64;89.10
7930;BME280;4010;42.698;23.124;2023-02-04T00:07:18;118349.16;;;-140.64;88.24
7930;BME280;4010;42.698;23.124;2023-02-04T00:09:44;118349.16;;;-140.64;88.28
7930;BME280;4010;42.698;23.124;2023-02-04T00:12:12;118349.16;;;-140.64;88.06
7930;BME280;4010;42.698;23.124;2023-02-04T00:14:39;118349.16;;;-140.64;88.23
7930;BME280;4010;42.698;23.124;2023-02-04T00:17:05;118349.16;;;-140.64;87.88
7930;BME280;4010;42.698;23.124;2023-02-04T00:19:34;118349.16;;;-140.64;87.93
7930;BME280;4010;42.698;23.124;2023-02-04T00:22:03;118349.16;;;-140.64;88.06
7930;BME280;4010;42.698;23.124;2023-02-04T00:24:31;118349.16;;;-140.64;87.67
7930;BME280;4010;42.698;23.124;2023-02-04T00:26:58;118349.16;;;-140.64;87.91
7930;BME280;4010;42.698;23.124;2023-02-04T00:29:24;118349.16;;;-140.64;87.87
7930;BME280;4010;42.698;23.124;2023-02-04T00:31:51;118349.16;;;-140.64;87.38
7930;BME280;4010;42.698;23.124;2023-02-04T00:34:18;118349.16;;;-140.64;87.42
7930;BME280;4010;42.698;23.124;2023-02-04T00:36:44;118349.16;;;-140.64;87.64
7930;BME280;4010;42.698;23.124;2023-02-04T00:39:13;118349.16;;;-140.64;87.59
7930;BME280;4010;42.698;23.124;2023-02-04T00:41:39;118349.16;;;-140.64;87.20
7930;BME280;4010;42.698;23.124;2023-02-04T00:44:06;118349.16;;;-140.64;88.30
7930;BME280;4010;42.698;23.124;2023-02-04T00:46:33;118349.16;;;-140.64;88.30
7930;BME280;4010;42.698;23.124;2023-02-04T00:48:59;118349.16;;;-140.64;88.45
7930;BME280;4010;42.698;23.124;2023-02-04T00:51:26;118349.16;;;-140.64;89.00
7930;BME280;4010;42.698;23.124;2023-02-04T00:53:53;118349.16;;;-140.64;89.26
7930;BME280;4010;42.698;23.124;2023-02-04T00:56:21;118349.16;;;-140.64;89.29
7930;BME280;4010;42.698;23.124;2023-02-04T00:58:47;118349.16;;;-140.64;88.74
7930;BME280;4010;42.698;23.124;2023-02-04T01:01:14;118349.16;;;-140.64;88.58
7930;BME280;4010;42.698;23.124;2023-02-04T01:03:41;118349.16;;;-140.64;87.99
7930;BME280;4010;42.698;23.124;2023-02-04T01:06:24;118349.16;;;-140.64;87.63
7930;BME280;4010;42.698;23.124;2023-02-04T01:08:51;118349.16;;;-140.64;88.05
7930;BME280;4010;42.698;23.124;2023-02-04T01:11:18;118349.16;;;-140.64;87.97
7930;BME280;4010;42.698;23.124;2023-02-04T01:13:46;118349.16;;;-140.64;87.81
7930;BME280;4010;42.698;23.124;2023-02-04T01:16:13;118349.16;;;-140.64;87.31
7930;BME280;4010;42.698;23.124;2023-02-04T01:18:40;118349.16;;;-140.64;87.40
7930;BME280;4010;42.698;23.124;2023-02-04T01:21:06;118349.16;;;-140.64;87.92
7930;BME280;4010;42.698;23.124;2023-02-04T01:23:33;118349.16;;;-140.64;87.70
7930;BME280;4010;42.698;23.124;2023-02-04T01:26:00;118349.16;;;-140.64;88.14
7930;BME280;4010;42.698;23.124;2023-02-04T01:28:26;118349.16;;;-140.64;88.91
7930;BME280;4010;42.698;23.124;2023-02-04T01:30:55;118349.16;;;-140.64;89.07
7930;BME280;4010;42.698;23.124;2023-02-04T01:33:21;118349.16;;;-140.64;89.88
7930;BME280;4010;42.698;23.124;2023-02-04T01:35:48;118349.16;;;-140.64;90.25
7930;BME280;4010;42.698;23.124;2023-02-04T01:38:15;118349.16;;;-140.64;90.88
7930;BME280;4010;42.698;23.124;2023-02-04T01:40:42;118349.16;;;-140.64;90.36
7930;BME280;4010;42.698;23.124;2023-02-04T01:43:09;118349.16;;;-140.64;90.69
7930;BME280;4010;42.698;23.124;2023-02-04T01:45:37;118349.16;;;-140.64;90.66
7930;BME280;4010;42.698;23.124;2023-02-04T01:48:05;118349.16;;;-140.64;90.79
7930;BME280;4010;42.698;23.124;2023-02-04T01:50:33;118349.16;;;-140.64;90.61
7930;BME280;4010;42.698;23.124;2023-02-04T01:53:00;118349.16;;;-140.64;90.92
7930;BME280;4010;42.698;23.124;2023-02-04T01:55:30;118349.16;;;-140.64;90.62
7930;BME280;4010;42.698;23.124;2023-02-04T01:57:58;118349.16;;;-140.64;89.82
7930;BME280;4010;42.698;23.124;2023-02-04T02:00:26;118349.16;;;-140.64;89.40
7930;BME280;4010;42.698;23.124;2023-02-04T02:02:53;118349.16;;;-140.64;90.02
7930;BME280;4010;42.698;23.124;2023-02-04T02:05:24;118349.16;;;-140.64;90.45
7930;BME280;4010;42.698;23.124;2023-02-04T02:07:55;118349.16;;;-140.64;90.30
7930;BME280;4010;42.698;23.124;2023-02-04T02:10:22;118349.16;;;-140.64;90.83
7930;BME280;4010;42.698;23.124;2023-02-04T02:12:50;118349.16;;;-140.64;90.35
7930;BME280;4010;42.698;23.124;2023-02-04T02:15:17;118349.16;;;-140.64;90.13
7930;BME280;4010;42.698;23.124;2023-02-04T02:17:44;118349.16;;;-140.64;90.45
7930;BME280;4010;42.698;23.124;2023-02-04T02:20:14;118349.16;;;-140.64;90.31
7930;BME280;4010;42.698;23.124;2023-02-04T02:22:48;118349.16;;;-140.64;89.70
7930;BME280;4010;42.698;23.124;2023-02-04T02:25:20;118349.16;;;-140.64;89.38
7930;BME280;4010;42.698;23.124;2023-02-04T02:27:47;118349.16;;;-140.64;89.19
7930;BME280;4010;42.698;23.124;2023-02-04T02:30:15;118349.16;;;-140.64;88.91
7930;BME280;4010;42.698;23.124;2023-02-04T02:32:44;118349.16;;;-140.64;89.40
7930;BME280;4010;42.698;23.124;2023-02-04T02:35:12;118349.16;;;-140.64;88.82
7930;BME280;4010;42.698;23.124;2023-02-04T02:37:39;118349.16;;;-140.64;88.92
7930;BME280;4010;42.698;23.124;2023-02-04T02:40:06;118349.16;;;-140.64;88.24
7930;BME280;4010;42.698;23.124;2023-02-04T02:42:35;118349.16;;;-140.64;88.12
7930;BME280;4010;42.698;23.124;2023-02-04T02:45:07;118349.16;;;-140.64;88.67
7930;BME280;4010;42.698;23.124;2023-02-04T02:47:36;118349.16;;;-140.64;86.97
7930;BME280;4010;42.698;23.124;2023-02-04T02:50:03;118349.16;;;-140.64;86.12
7930;BME280;4010;42.698;23.124;2023-02-04T02:52:29;118349.16;;;-140.64;86.08
7930;BME280;4010;42.698;23.124;2023-02-04T02:54:56;118349.16;;;-140.64;86.07
7930;BME280;4010;42.698;23.124;2023-02-04T02:57:23;118349.16;;;-140.64;86.48
7930;BME280;4010;42.698;23.124;2023-02-04T02:59:51;118349.16;;;-140.64;86.36
7930;BME280;4010;42.698;23.124;2023-02-04T03:02:21;118349.16;;;-140.64;86.63
7930;BME280;4010;42.698;23.124;2023-02-04T03:04:51;118349.16;;;-140.64;87.20
7930;BME280;4010;42.698;23.124;2023-02-04T03:07:21;118349.16;;;-140.64;86.29
7930;BME280;4010;42.698;23.124;2023-02-04T03:09:48;118349.16;;;-140.64;86.15
7930;BME280;4010;42.698;23.124;2023-02-04T03:12:16;118349.16;;;-140.64;85.59
7930;BME280;4010;42.698;23.124;2023-02-04T03:14:43;118349.16;;;-140.64;85.09
7930;BME280;4010;42.698;23.124;2023-02-04T03:17:13;118349.16;;;-140.64;84.39
7930;BME280;4010;42.698;23.124;2023-02-04T03:19:39;118349.16;;;-140.64;84.04
7930;BME280;4010;42.698;23.124;2023-02-04T03:22:06;118349.16;;;-140.64;83.64
7930;BME280;4010;42.698;23.124;2023-02-04T03:24:34;118349.16;;;-140.64;83.31
7930;BME280;4010;42.698;23.124;2023-02-04T03:27:01;118349.16;;;-140.64;83.20
7930;BME280;4010;42.698;23.124;2023-02-04T03:29:28;118349.16;;;-140.64;83.10
7930;BME280;4010;42.698;23.124;2023-02-04T03:31:55;118349.16;;;-140.64;83.08
7930;BME280;4010;42.698;23.124;2023-02-04T03:34:25;118349.16;;;-140.64;83.16
7930;BME280;4010;42.698;23.124;2023-02-04T03:36:52;118349.16;;;-140.64;83.20
7930;BME280;4010;42.698;23.124;2023-02-04T03:39:19;118349.16;;;-140.64;83.46
7930;BME280;4010;42.698;23.124;2023-02-04T03:41:46;118349.16;;;-140.64;83.29
7930;BME280;4010;42.698;23.124;2023-02-04T03:44:12;118349.16;;;-140.64;82.83
7930;BME280;4010;42.698;23.124;2023-02-04T03:46:39;118349.16;;;-140.64;82.62
7930;BME280;4010;42.698;23.124;2023-02-04T03:49:05;118349.16;;;-140.64;82.69
7930;BME280;4010;42.698;23.124;2023-02-04T03:51:33;118349.16;;;-140.64;82.39
7930;BME280;4010;42.698;23.124;2023-02-04T03:54:00;118349.16;;;-140.64;82.51
7930;BME280;4010;42.698;23.124;2023-02-04T03:56:27;118349.16;;;-140.64;83.50
7930;BME280;4010;42.698;23.124;2023-02-04T03:58:53;118349.16;;;-140.64;84.21
7930;BME280;4010;42.698;23.124;2023-02-04T04:01:20;118349.16;;;-140.64;86.27
7930;BME280;4010;42.698;23.124;2023-02-04T04:03:47;118349.16;;;-140.64;87.45
7930;BME280;4010;42.698;23.124;2023-02-04T04:06:13;118349.16;;;-140.64;88.19
7930;BME280;4010;42.698;23.124;2023-02-04T04:08:41;118349.16;;;-140.64;88.02
7930;BME280;4010;42.698;23.124;2023-02-04T04:11:08;118349.16;;;-140.64;87.66
7930;BME280;4010;42.698;23.124;2023-02-04T04:13:35;118349.16;;;-140.64;87.64
7930;BME280;4010;42.698;23.124;2023-02-04T04:16:02;118349.16;;;-140.64;86.70
7930;BME280;4010;42.698;23.124;2023-02-04T04:18:29;118349.16;;;-140.64;85.94
7930;BME280;4010;42.698;23.124;2023-02-04T04:20:57;118349.16;;;-140.64;85.03
7930;BME280;4010;42.698;23.124;2023-02-04T04:23:23;118349.16;;;-140.64;85.47
7930;BME280;4010;42.698;23.124;2023-02-04T04:25:52;118349.16;;;-140.64;85.46
7930;BME280;4010;42.698;23.124;2023-02-04T04:28:18;118349.16;;;-140.64;86.17
7930;BME280;4010;42.698;23.124;2023-02-04T04:30:45;118349.16;;;-140.64;87.34
7930;BME280;4010;42.698;23.124;2023-02-04T04:33:11;118349.16;;;-140.64;88.04
7930;BME280;4010;42.698;23.124;2023-02-04T04:35:38;118349.16;;;-140.64;88.16
7930;BME280;4010;42.698;23.124;2023-02-04T04:38:05;118349.16;;;-140.64;89.64
7930;BME280;4010;42.698;23.124;2023-02-04T04:40:31;118349.16;;;-140.64;89.95
7930;BME280;4010;42.698;23.124;2023-02-04T04:42:59;118349.16;;;-140.64;90.23
7930;BME280;4010;42.698;23.124;2023-02-04T04:45:26;118349.16;;;-140.64;91.97
7930;BME280;4010;42.698;23.124;2023-02-04T04:47:53;118349.16;;;-140.64;91.96
7930;BME280;4010;42.698;23.124;2023-02-04T04:50:19;118349.16;;;-140.64;92.00
7930;BME280;4010;42.698;23.124;2023-02-04T04:52:46;118349.16;;;-140.64;92.11
7930;BME280;4010;42.698;23.124;2023-02-04T04:55:13;118349.16;;;-140.64;92.11
7930;BME280;4010;42.698;23.124;2023-02-04T04:57:40;118349.16;;;-140.64;92.88
7930;BME280;4010;42.698;23.124;2023-02-04T05:00:14;118349.16;;;-140.64;92.68
7930;BME280;4010;42.698;23.124;2023-02-04T05:02:41;118349.16;;;-140.64;94.05
7930;BME280;4010;42.698;23.124;2023-02-04T05:05:08;118349.16;;;-140.64;94.44
7930;BME280;4010;42.698;23.124;2023-02-04T05:07:35;118349.16;;;-140.64;96.11
7930;BME280;4010;42.698;23.124;2023-02-04T05:10:02;118349.16;;;-140.64;97.27
7930;BME280;4010;42.698;23.124;2023-02-04T05:12:29;118349.16;;;-140.64;97.93
7930;BME280;4010;42.698;23.124;2023-02-04T05:14:55;118349.16;;;-140.64;99.62
7930;BME280;4010;42.698;23.124;2023-02-04T05:17:24;118349.16;;;-140.64;100.00
7930;BME280;4010;42.698;23.124;2023-02-04T05:19:50;118349.16;;;-140.64;100.00
7930;BME280;4010;42.698;23.124;2023-02-04T05:22:17;118349.16;;;-140.64;100.00
7930;BME280;4010;42.698;23.124;2023-02-04T05:24:44;118349.16;;;-140.64;100.00
7930;BME280;4010;42.698;23.124;2023-02-04T05:27:10;118349.16;;;-140.64;100.00
7930;BME280;4010;42.698;23.124;2023-02-04T05:29:37;118349.16;;;-140.64;100.00
7930;BME280;4010;42.698;23.124;2023-02-04T05:32:04;118349.16;;;-140.64;100.00
7930;BME280;4010;42.698;23.124;2023-02-04T05:34:32;118349.16;;;-140.64;100.00
7930;BME280;4010;42.698;23.124;2023-02-04T05:36:58;118349.16;;;-140.64;100.00
7930;BME280;4010;42.698;23.124;2023-02-04T05:39:25;118349.16;;;-140.64;100.00
7930;BME280;4010;42.698;23.124;2023-02-04T05:41:51;118349.16;;;-140.64;100.00
7930;BME280;4010;42.698;23.124;2023-02-04T05:44:18;118349.16;;;-140.64;100.00
7930;BME280;4010;42.698;23.124;2023-02-04T05:46:45;118349.16;;;-140.64;100.00
7930;BME280;4010;42.698;23.124;2023-02-04T05:49:11;118349.16;;;-140.64;100.00
7930;BME280;4010;42.698;23.124;2023-02-04T05:51:39;118349.16;;;-140.64;100.00
7930;BME280;4010;42.698;23.124;2023-02-04T05:54:06;118349.16;;;-140.64;100.00
7930;BME280;4010;42.698;23.124;2023-02-04T05:56:33;118349.16;;;-140.64;100.00
7930;BME280;4010;42.698;23.124;2023-02-04T05:58:59;118349.16;;;-140.64;100.00
7930;BME280;4010;42.698;23.124;2023-02-04T06:01:26;118349.16;;;-140.64;100.00
7930;BME280;4010;42.698;23.124;2023-02-04T06:03:53;118349.16;;;-140.64;100.00
7930;BME280;4010;42.698;23.124;2023-02-04T06:06:19;118349.16;;;-140.64;100.00
7930;BME280;4010;42.698;23.124;2023-02-04T06:08:47;118349.16;;;-140.64;100.00
7930;BME280;4010;42.698;23.124;2023-02-04T06:11:14;118349.16;;;-140.64;100.00
7930;BME280;4010;42.698;23.124;2023-02-04T06:13:41;118349.16;;;-140.64;100.00
7930;BME280;4010;42.698;23.124;2023-02-04T06:16:07;118349.16;;;-140.64;100.00
7930;BME280;4010;42.698;23.124;2023-02-04T06:18:34;118349.16;;;-140.64;100.00
7930;BME280;4010;42.698;23.124;2023-02-04T06:21:00;118349.16;;;-140.64;99.75
7930;BME280;4010;42.698;23.124;2023-02-04T06:23:29;118349.16;;;-140.64;99.49
7930;BME280;4010;42.698;23.124;2023-02-04T06:25:57;118349.16;;;-140.64;99.34
7930;BME280;4010;42.698;23.124;2023-02-04T06:28:24;118349.16;;;-140.64;99.01
7930;BME280;4010;42.698;23.124;2023-02-04T06:30:50;118349.16;;;-140.64;98.51
7930;BME280;4010;42.698;23.124;2023-02-04T06:33:17;118349.16;;;-140.64;98.21
7930;BME280;4010;42.698;23.124;2023-02-04T06:35:45;118349.16;;;-140.64;97.19
7930;BME280;4010;42.698;23.124;2023-02-04T06:38:12;118349.16;;;-140.64;96.90
7930;BME280;4010;42.698;23.124;2023-02-04T06:40:39;118349.16;;;-140.64;96.66
7930;BME280;4010;42.698;23.124;2023-02-04T06:43:07;118349.16;;;-140.64;95.52
7930;BME280;4010;42.698;23.124;2023-02-04T06:45:33;118349.16;;;-140.64;95.48
7930;BME280;4010;42.698;23.124;2023-02-04T06:48:00;118349.16;;;-140.64;95.30
7930;BME280;4010;42.698;23.124;2023-02-04T06:50:27;118349.16;;;-140.64;94.70
7930;BME280;4010;42.698;23.124;2023-02-04T06:52:53;118349.16;;;-140.64;93.76
7930;BME280;4010;42.698;23.124;2023-02-04T06:55:20;118349.16;;;-140.64;93.69
7930;BME280;4010;42.698;23.124;2023-02-04T06:57:47;118349.16;;;-140.64;92.59
7930;BME280;4010;42.698;23.124;2023-02-04T07:00:15;118349.16;;;-140.64;92.52
7930;BME280;4010;42.698;23.124;2023-02-04T07:02:42;118349.16;;;-140.64;91.74
7930;BME280;4010;42.698;23.124;2023-02-04T07:05:10;118349.16;;;-140.64;91.25
7930;BME280;4010;42.698;23.124;2023-02-04T07:07:37;118349.16;;;-140.64;90.24
7930;BME280;4010;42.698;23.124;2023-02-04T07:10:04;118349.16;;;-140.64;88.87
7930;BME280;4010;42.698;23.124;2023-02-04T07:12:30;118349.16;;;-140.64;89.70
7930;BME280;4010;42.698;23.124;2023-02-04T07:14:57;118349.16;;;-140.64;90.05
7930;BME280;4010;42.698;23.124;2023-02-04T07:17:25;118349.16;;;-140.64;89.62
7930;BME280;4010;42.698;23.124;2023-02-04T07:19:52;118349.16;;;-140.64;89.97
7930;BME280;4010;42.698;23.124;2023-02-04T07:22:18;118349.16;;;-140.64;88.41
7930;BME280;4010;42.698;23.124;2023-02-04T07:24:45;118349.16;;;-140.64;87.88
7930;BME280;4010;42.698;23.124;2023-02-04T07:27:12;118349.16;;;-140.64;87.82
7930;BME280;4010;42.698;23.124;2023-02-04T07:29:38;118349.16;;;-140.64;86.12
7930;BME280;4010;42.698;23.124;2023-02-04T07:32:05;118349.16;;;-140.64;84.67
7930;BME280;4010;42.698;23.124;2023-02-04T07:34:33;118349.16;;;-140.64;82.76
7930;BME280;4010;42.698;23.124;2023-02-04T07:37:00;118349.16;;;-140.64;82.45
7930;BME280;4010;42.698;23.124;2023-02-04T07:39:27;118349.16;;;-140.64;81.87
7930;BME280;4010;42.698;23.124;2023-02-04T07:41:53;118349.16;;;-140.64;80.54
7930;BME280;4010;42.698;23.124;2023-02-04T07:44:20;118349.16;;;-140.64;80.89
7930;BME280;4010;42.698;23.124;2023-02-04T07:46:47;118349.16;;;-140.64;81.78
7930;BME280;4010;42.698;23.124;2023-02-04T07:49:13;118349.16;;;-140.64;82.40
7930;BME280;4010;42.698;23.124;2023-02-04T07:51:41;118349.16;;;-140.64;82.28
7930;BME280;4010;42.698;23.124;2023-02-04T07:54:08;118349.16;;;-140.64;81.17
7930;BME280;4010;42.698;23.124;2023-02-04T07:56:35;118349.16;;;-140.64;81.82
7930;BME280;4010;42.698;23.124;2023-02-04T07:59:01;118349.16;;;-140.64;80.95
7930;BME280;4010;42.698;23.124;2023-02-04T08:01:28;118349.16;;;-140.64;81.30
7930;BME280;4010;42.698;23.124;2023-02-04T08:03:55;118349.16;;;-140.64;81.50
7930;BME280;4010;42.698;23.124;2023-02-04T08:06:21;118349.16;;;-140.64;81.44
7930;BME280;4010;42.698;23.124;2023-02-04T08:08:49;118349.16;;;-140.64;82.01
7930;BME280;4010;42.698;23.124;2023-02-04T08:11:16;118349.16;;;-140.64;82.78
7930;BME280;4010;42.698;23.124;2023-02-04T08:13:42;118349.16;;;-140.64;82.05
7930;BME280;4010;42.698;23.124;2023-02-04T08:16:09;118349.16;;;-140.64;82.25
7930;BME280;4010;42.698;23.124;2023-02-04T08:18:36;118349.16;;;-140.64;82.67
7930;BME280;4010;42.698;23.124;2023-02-04T08:21:03;118349.16;;;-140.64;83.39
7930;BME280;4010;42.698;23.124;2023-02-04T08:23:30;118349.16;;;-140.64;83.45
7930;BME280;4010;42.698;23.124;2023-02-04T08:25:59;118349.16;;;-140.64;84.62
7930;BME280;4010;42.698;23.124;2023-02-04T08:28:25;118349.16;;;-140.64;84.79
7930;BME280;4010;42.698;23.124;2023-02-04T08:30:52;118349.16;;;-140.64;85.31
7930;BME280;4010;42.698;23.124;2023-02-04T08:33:20;118349.16;;;-140.64;86.19
7930;BME280;4010;42.698;23.124;2023-02-04T08:35:47;118349.16;;;-140.64;86.97
7930;BME280;4010;42.698;23.124;2023-02-04T08:38:14;118349.16;;;-140.64;86.40
7930;BME280;4010;42.698;23.124;2023-02-04T08:40:41;118349.16;;;-140.64;86.51
7930;BME280;4010;42.698;23.124;2023-02-04T08:43:09;118349.16;;;-140.64;87.07
7930;BME280;4010;42.698;23.124;2023-02-04T08:45:36;118349.16;;;-140.64;87.88
7930;BME280;4010;42.698;23.124;2023-02-04T08:48:03;118349.16;;;-140.64;88.90
7930;BME280;4010;42.698;23.124;2023-02-04T08:50:30;118349.16;;;-140.64;89.49
7930;BME280;4010;42.698;23.124;2023-02-04T08:52:57;118349.16;;;-140.64;89.06
7930;BME280;4010;42.698;23.124;2023-02-04T08:55:24;118349.16;;;-140.64;87.90
7930;BME280;4010;42.698;23.124;2023-02-04T08:57:50;118349.16;;;-140.64;87.17
7930;BME280;4010;42.698;23.124;2023-02-04T09:00:19;118349.16;;;-140.64;87.29
7930;BME280;4010;42.698;23.124;2023-02-04T09:02:45;118349.16;;;-140.64;86.86
7930;BME280;4010;42.698;23.124;2023-02-04T09:05:12;118349.16;;;-140.64;86.57
7930;BME280;4010;42.698;23.124;2023-02-04T09:07:39;118349.16;;;-140.64;86.93
7930;BME280;4010;42.698;23.124;2023-02-04T09:10:05;118349.16;;;-140.64;86.07
7930;BME280;4010;42.698;23.124;2023-02-04T09:12:35;118349.16;;;-140.64;86.61
7930;BME280;4010;42.698;23.124;2023-02-04T09:15:02;118349.16;;;-140.64;86.01
7930;BME280;4010;42.698;23.124;2023-02-04T09:17:31;118349.16;;;-140.64;85.93
7930;BME280;4010;42.698;23.124;2023-02-04T09:19:58;118349.16;;;-140.64;86.78
7930;BME280;4010;42.698;23.124;2023-02-04T09:22:24;118349.16;;;-140.64;85.49
7930;BME280;4010;42.698;23.124;2023-02-04T09:24:51;118349.16;;;-140.64;85.96
7930;BME280;4010;42.698;23.124;2023-02-04T09:27:18;118349.16;;;-140.64;86.14
7930;BME280;4010;42.698;23.124;2023-02-04T09:29:45;118349.16;;;-140.64;86.43
7930;BME280;4010;42.698;23.124;2023-02-04T09:32:11;118349.16;;;-140.64;87.06
7930;BME280;4010;42.698;23.124;2023-02-04T09:34:39;118349.16;;;-140.64;88.06
7930;BME280;4010;42.698;23.124;2023-02-04T09:37:06;118349.16;;;-140.64;89.12
7930;BME280;4010;42.698;23.124;2023-02-04T09:39:33;118349.16;;;-140.64;89.54
7930;BME280;4010;42.698;23.124;2023-02-04T09:41:59;118349.16;;;-140.64;90.81
7930;BME280;4010;42.698;23.124;2023-02-04T09:44:27;118349.16;;;-140.64;91.22
7930;BME280;4010;42.698;23.124;2023-02-04T09:46:55;118349.16;;;-140.64;91.05
7930;BME280;4010;42.698;23.124;2023-02-04T09:49:24;118349.16;;;-140.64;92.18
7930;BME280;4010;42.698;23.124;2023-02-04T09:51:53;118349.16;;;-140.64;92.75
7930;BME280;4010;42.698;23.124;2023-02-04T09:54:21;118349.16;;;-140.64;93.22
7930;BME280;4010;42.698;23.124;2023-02-04T09:56:48;118349.16;;;-140.64;93.37
7930;BME280;4010;42.698;23.124;2023-02-04T09:59:17;118349.16;;;-140.64;93.49
7930;BME280;4010;42.698;23.124;2023-02-04T10:01:45;118349.16;;;-140.64;93.27
7930;BME280;4010;42.698;23.124;2023-02-04T10:04:14;118349.16;;;-140.64;93.55
7930;BME280;4010;42.698;23.124;2023-02-04T10:06:41;118349.16;;;-140.64;93.75
7930;BME280;4010;42.698;23.124;2023-02-04T10:09:11;118349.16;;;-140.64;94.53
7930;BME280;4010;42.698;23.124;2023-02-04T10:11:40;118349.16;;;-140.64;94.46
7930;BME280;4010;42.698;23.124;2023-02-04T10:14:12;118349.16;;;-140.64;94.44
7930;BME280;4010;42.698;23.124;2023-02-04T10:16:41;118349.16;;;-140.64;94.37
7930;BME280;4010;42.698;23.124;2023-02-04T10:19:13;118349.16;;;-140.64;94.79
7930;BME280;4010;42.698;23.124;2023-02-04T10:21:41;118349.16;;;-140.64;96.10
7930;BME280;4010;42.698;23.124;2023-02-04T10:24:13;118349.16;;;-140.64;97.52
7930;BME280;4010;42.698;23.124;2023-02-04T10:26:40;118349.16;;;-140.64;98.37
7930;BME280;4010;42.698;23.124;2023-02-04T10:29:12;118349.16;;;-140.64;99.55
7930;BME280;4010;42.698;23.124;2023-02-04T10:31:41;118349.16;;;-140.64;99.76
7930;BME280;4010;42.698;23.124;2023-02-04T10:34:13;118349.16;;;-140.64;100.00
7930;BME280;4010;42.698;23.124;2023-02-04T10:36:42;118349.16;;;-140.64;100.00
7930;BME280;4010;42.698;23.124;2023-02-04T10:39:14;118349.16;;;-140.64;100.00
7930;BME280;4010;42.698;23.124;2023-02-04T10:41:46;118349.16;;;-140.64;100.00
7930;BME280;4010;42.698;23.124;2023-02-04T10:44:15;118349.16;;;-140.64;98.68
7930;BME280;4010;42.698;23.124;2023-02-04T10:46:42;118349.16;;;-140.64;98.91
7930;BME280;4010;42.698;23.124;2023-02-04T10:49:18;118349.16;;;-140.64;99.10
7930;BME280;4010;42.698;23.124;2023-02-04T10:51:45;118349.16;;;-140.64;99.13
7930;BME280;4010;42.698;23.124;2023-02-04T10:54:14;118349.16;;;-140.64;98.95
7930;BME280;4010;42.698;23.124;2023-02-04T10:56:57;118349.16;;;-140.64;98.87
7930;BME280;4010;42.698;23.124;2023-02-04T10:59:25;118349.16;;;-140.64;97.74
7930;BME280;4010;42.698;23.124;2023-02-04T11:01:54;118349.16;;;-140.64;98.25
7930;BME280;4010;42.698;23.124;2023-02-04T11:04:22;118349.16;;;-140.64;98.13
7930;BME280;4010;42.698;23.124;2023-02-04T11:06:50;118349.16;;;-140.64;98.70
7930;BME280;4010;42.698;23.124;2023-02-04T11:09:19;118349.16;;;-140.64;99.72
7930;BME280;4010;42.698;23.124;2023-02-04T11:11:47;118349.16;;;-140.64;99.67
7930;BME280;4010;42.698;23.124;2023-02-04T11:14:22;118349.16;;;-140.64;99.50
7930;BME280;4010;42.698;23.124;2023-02-04T11:16:49;118349.16;;;-140.64;100.00
7930;BME280;4010;42.698;23.124;2023-02-04T11:19:31;118349.16;;;-140.64;99.71
7930;BME280;4010;42.698;23.124;2023-02-04T11:22:06;118349.16;;;-140.64;98.56
7930;BME280;4010;42.698;23.124;2023-02-04T11:24:34;118349.16;;;-140.64;98.08
7930;BME280;4010;42.698;23.124;2023-02-04T11:27:07;118349.16;;;-140.64;96.80
7930;BME280;4010;42.698;23.124;2023-02-04T11:29:43;118349.16;;;-140.64;98.10
7930;BME280;4010;42.698;23.124;2023-02-04T11:32:27;118349.16;;;-140.64;98.51
7930;BME280;4010;42.698;23.124;2023-02-04T11:35:06;118349.16;;;-140.64;98.44
7930;BME280;4010;42.698;23.124;2023-02-04T11:37:36;118349.16;;;-140.64;98.17
7930;BME280;4010;42.698;23.124;2023-02-04T11:40:26;118349.16;;;-140.64;99.47
7930;BME280;4010;42.698;23.124;2023-02-04T11:42:58;118349.16;;;-140.64;98.71
7930;BME280;4010;42.698;23.124;2023-02-04T11:45:28;118349.16;;;-140.64;99.35
7930;BME280;4010;42.698;23.124;2023-02-04T11:47:57;118349.16;;;-140.64;99.72
7930;BME280;4010;42.698;23.124;2023-02-04T11:50:26;118349.16;;;-140.64;99.38
7930;BME280;4010;42.698;23.124;2023-02-04T11:52:55;118349.16;;;-140.64;99.58
7930;BME280;4010;42.698;23.124;2023-02-04T11:55:24;118349.16;;;-140.64;99.42
7930;BME280;4010;42.698;23.124;2023-02-04T11:57:52;118349.16;;;-140.64;99.77
7930;BME280;4010;42.698;23.124;2023-02-04T12:00:21;118349.16;;;-140.64;99.74
7930;BME280;4010;42.698;23.124;2023-02-04T12:02:54;118349.16;;;-140.64;99.77
7930;BME280;4010;42.698;23.124;2023-02-04T12:05:28;118349.16;;;-140.64;99.71
7930;BME280;4010;42.698;23.124;2023-02-04T12:08:09;118349.16;;;-140.64;100.00
7930;BME280;4010;42.698;23.124;2023-02-04T12:10:37;118349.16;;;-140.64;100.00
7930;BME280;4010;42.698;23.124;2023-02-04T12:13:12;118349.16;;;-140.64;99.74
7930;BME280;4010;42.698;23.124;2023-02-04T12:15:51;118349.16;;;-140.64;100.00
7930;BME280;4010;42.698;23.124;2023-02-04T12:18:20;118349.16;;;-140.64;99.30
7930;BME280;4010;42.698;23.124;2023-02-04T12:20:47;118349.16;;;-140.64;98.14
7930;BME280;4010;42.698;23.124;2023-02-04T12:23:14;118349.16;;;-140.64;98.50
7930;BME280;4010;42.698;23.124;2023-02-04T12:25:42;118349.16;;;-140.64;97.18
7930;BME280;4010;42.698;23.124;2023-02-04T12:28:08;118349.16;;;-140.64;97.70
7930;BME280;4010;42.698;23.124;2023-02-04T12:30:35;118349.16;;;-140.64;98.14
7930;BME280;4010;42.698;23.124;2023-02-04T12:33:02;118349.16;;;-140.64;98.80
7930;BME280;4010;42.698;23.124;2023-02-04T12:35:28;118349.16;;;-140.64;99.05
7930;BME280;4010;42.698;23.124;2023-02-04T12:37:55;118349.16;;;-140.64;99.41
7930;BME280;4010;42.698;23.124;2023-02-04T12:40:22;118349.16;;;-140.64;99.56
7930;BME280;4010;42.698;23.124;2023-02-04T12:42:50;118349.16;;;-140.64;98.38